AirNav  
 
 1364 users online  

CA84 Torrey Pines Gliderport
San Diego, California, USA

GOING TO SAN DIEGO?


FAA INFORMATION EFFECTIVE 25 MARCH 2021

Location

FAA Identifier: CA84
Lat/Long: 32-53-23.0000N 117-14-49.0000W
32-53.383333N 117-14.816667W
32.8897222,-117.2469444
(estimated)
Elevation: 372 ft. / 113 m (estimated)
Variation: 13E (1985)
From city: 11 miles NW of SAN DIEGO, CA
Time zone: UTC -7 (UTC -8 during Standard Time)
Zip code: 92037

Gliderport Operations

Gliderport use: Private use. Permission required prior to landing
Activation date: 11/1961
Control tower: no
ARTCC: LOS ANGELES CENTER
FSS: SAN DIEGO FLIGHT SERVICE STATION
Attendance: UNATNDD
Wind indicator: no
Segmented circle: no

Gliderport Communications

WX ASOS at MYF (7 nm SE): 126.9 (858-576-4337)
WX ASOS at SAN (10 nm S): PHONE 619-296-8934
WX AWOS-3P at SEE (14 nm E): 125.45 (619-449-1228)
WX ASOS at CRQ (14 nm N): PHONE 760-930-0864
WX ASOS at RNM (19 nm NE): PHONE 760-789-7699

Nearby radio navigation aids

VOR radial/distance  VOR name  Freq  Var
MZBr335/6.5MISSION BAY VORTAC117.8015E
PGYr307/21.5POGGI VORTAC116.4514E
OCNr143/22.7OCEANSIDE VORTAC115.3015E
TIJr313/25.7TIJUANA VOR/DME116.5012E
JLIr231/36.5JULIAN VORTAC114.0015E

Gliderport Services

Airframe service: NONE
Powerplant service: NONE

Runway Information

Runway 9/27

Dimensions: 1500 x 30 ft. / 457 x 9 m
Surface: asphalt
RUNWAY 9  RUNWAY 27
Traffic pattern: leftleft
Obstructions: nonetrees, 100 ft. from runway

Gliderport Ownership and Management from official FAA records

Ownership: Publicly-owned
Owner: CITY OF SAN DIEGO
202 C STREET MS 2A
SAN DIEGO, CA 92101
Manager: MAX MARIEN
2800 TORREY PINES SCENIC DRIVE
JO JOLLA, CA 92037
Phone 858-452-9858
WORK PHONE 619-535-9505 EXT 1585

Additional Remarks

GLIDER PORT IS LEASED FM CITY TO THE ASSOCD GLIDER CLUB OF SOUTHERN CALIF FOR STUDENT TRAINING & RIDGE SOARING.
ALL ACFT ARE TRAILERED GLIDERS.
ROLLING RWY .6 PERCENT GRADIENT.
EXTENSIVE HANG GLIDER OPERATIONS ON WEEKENDS AND WEEKDAYS.
FOR CD CTC LOS ANGELES ARTCC AT 661-575-2079.

Instrument Procedures

There are no published instrument procedures at CA84.

Some nearby airports with instrument procedures:

KNKX - Miramar MCAS (Joe Foss Field) Airport (5 nm E)
KMYF - Montgomery-GibbsExecutive Airport (7 nm SE)
KSAN - San Diego International Airport (10 nm S)
KNZY - North Island Naval Air Station (Halsey Field) (12 nm S)
KSEE - Gillespie Field Airport (14 nm E)
KCRQ - Mc Clellan-Palomar Airport (14 nm N)
KRNM - Ramona Airport (19 nm NE)
 
Loc | Ops | Rwys | IFR | FBO | Links
Com | Nav | Svcs | Stats | Notes
Area around CA84 (Torrey Pines Gliderport)
 
Road maps at: MapQuest Bing Google
 
Aerial photo
WARNING: Photo may not be current or correct
Aerial photo of CA84 (Torrey Pines Gliderport)
Photo by Doug Fronius
Photo taken 13-Mar-2004
from a 1942 Schweizer TG-2 sailplane.

Do you have a better or more recent aerial photo of Torrey Pines Gliderport that you would like to share? If so, please send us your photo.

 
Sectional chart

 
Airport distance calculator
Flying to Torrey Pines Gliderport? Find the distance to fly.

From to CA84

Sunrise and sunset
Times for 16-Apr-2021
 Local
(UTC-7)
 Zulu
(UTC)
Morning civil twilight05:5412:54
Sunrise06:1913:19
Sunset19:1902:19
Evening civil twilight19:4402:44

Current date and time
Zulu (UTC)  16-Apr-2021 21:23:19
Local (UTC-7)  16-Apr-2021 14:23:19
 
METAR
KNKX 
6nm E 
161955Z 26007KT 10SM FEW023 21/09 A2994 RMK A02 SLP134 T02060089
KMYF 
7nm SE 
162053Z 25008KT 210V280 10SM CLR 20/09 A2994 RMK AO2 SLP134 T02000094 58009
KSAN 
10nm S 
162051Z 27009KT 10SM FEW250 19/09 A2996 RMK AO2 SLP144 T01940094 56009
KNZY 
11nm S 
162052Z 27009KT 10SM FEW020 FEW250 18/10 A2994 RMK AO2 SLP138 T01780100 57009
KCRQ 
15nm N 
162053Z AUTO 23008KT 10SM CLR 17/09 A2993 RMK AO2 SLP134 T01670094 57007
KSEE 
15nm E 
162047Z 30007G11KT 10SM SKC 21/08 A2992
KRNM 
19nm NE 
162053Z 22004KT 10SM CLR 22/08 A2993 RMK AO2 SLP127 T02170078 56007
TAF
KNKX 
6nm E 
1615/1715 VRB05KT 9999 BKN015 QNH2992INS BECMG 1615/1617 VRB05KT 9999 FEW020 SCT200 QNH2991INS FM161930 28010KT 9999 SCT200 QNH2988INS BECMG 1704/1706 VRB05KT 9999 BKN012 QNH2991INS TEMPO 1707/1713 OVC009 T21/1621Z T11/1714Z
KSAN 
10nm S 
161738Z 1618/1724 VRB04KT P6SM SCT020 FM161900 28009KT P6SM FEW030 FM170300 29006KT P6SM OVC015 FM171000 VRB03KT P6SM OVC012 FM171600 VRB04KT P6SM SCT020 FM172000 27009KT P6SM FEW030
KNZY 
11nm S 
1615/1715 VRB06KT 9999 OVC018 QNH2992INS BECMG 1617/1618 9999 SCT020 BKN250 QNH2994INS FM161900 27011KT 9999 FEW025 SCT250 QNH2990INS FM170300 VRB06KT 9999 SCT020 QNH2992INS FM170500 VRB06KT 9999 BKN018 QNH2994INS T17/1621Z T13/1712Z FS30139
KCRQ 
15nm N 
161738Z 1618/1718 25005KT P6SM SCT020 FM161900 25009KT P6SM FEW030 FM170200 24004KT P6SM OVC014 FM170800 VRB02KT P6SM OVC010 FM171600 VRB03KT P6SM SCT020
NOTAMs
Click for the latest NOTAMs
NOTAMs are issued by the DoD/FAA and will open in a separate window not controlled by AirNav.

 

 
 

Would you like to see your business listed on this page?

 If your business provides an interesting product or service to pilots, flight crews, aircraft, or users of the Torrey Pines Gliderport, you should consider listing it here.  To start the listing process, click on the button below
 
Add a business
 

Other Pages about Torrey Pines Gliderport

www.agcsc.org/torrey_pines_info.html
 
Update a link
 
Copyright © AirNav, LLC. All rights reserved. Privacy Policy  Contact